KONA/ONA METAR and TAF weather

Enter ICAO airport designator
Station Type Date Time Source
KONA METAR 2022/11/30 16:25 UTC NOAA

KONA 301625Z AUTO 29015G25KT 251V311 10SM SCT027 M06/M12 A3003 RMK AO2


Station Type Date Time Source
KONA Decoded METAR 2022/11/30 16:25 UTC NOAA

Winona, Winona Municipal Airport-Max Conrad Field, MN, United States (KONA) 44-05N 091-42W
Nov 30, 2022 - 11:25 AM EST / 2022.11.30 1625 UTC
Wind: from the WNW (290 degrees) at 17 MPH (15 KT) gusting to 29 MPH (25 KT) (direction variable):0
Visibility: 10 mile(s):0
Sky conditions: partly cloudy
Temperature: 21 F (-6 C)
Windchill: 6 F (-14 C):1
Dew Point: 10 F (-12 C)
Relative Humidity: 62%
Pressure (altimeter): 30.03 in. Hg (1016 hPa)
ob: KONA 301625Z AUTO 29015G25KT 251V311 10SM SCT027 M06/M12 A3003 RMK AO2
cycle: 16

Station Type Date Time Source
KONA TAF UTC NOAA

Error!

Example: see airport list